sensor_id;sensor_type;location;lat;lon;timestamp;P1;durP1;ratioP1;P2;durP2;ratioP2
45520;SDS011;61151;50.928;4.534;2022-09-21T00:00:36;2.25;;;1.70;;
45520;SDS011;61151;50.928;4.534;2022-09-21T00:03:03;3.33;;;2.05;;
45520;SDS011;61151;50.928;4.534;2022-09-21T00:05:31;2.10;;;1.60;;
45520;SDS011;61151;50.928;4.534;2022-09-21T00:08:01;3.97;;;2.10;;
45520;SDS011;61151;50.928;4.534;2022-09-21T00:10:28;2.75;;;1.80;;
45520;SDS011;61151;50.928;4.534;2022-09-21T00:12:56;2.53;;;1.58;;
45520;SDS011;61151;50.928;4.534;2022-09-21T00:15:24;3.95;;;2.25;;
45520;SDS011;61151;50.928;4.534;2022-09-21T00:17:54;2.50;;;1.70;;
45520;SDS011;61151;50.928;4.534;2022-09-21T00:20:22;2.90;;;1.75;;
45520;SDS011;61151;50.928;4.534;2022-09-21T00:22:50;2.92;;;1.65;;
45520;SDS011;61151;50.928;4.534;2022-09-21T00:25:17;3.50;;;1.83;;
45520;SDS011;61151;50.928;4.534;2022-09-21T00:27:44;3.60;;;1.80;;
45520;SDS011;61151;50.928;4.534;2022-09-21T00:30:17;3.10;;;1.80;;
45520;SDS011;61151;50.928;4.534;2022-09-21T00:32:44;3.17;;;1.65;;
45520;SDS011;61151;50.928;4.534;2022-09-21T00:35:11;3.80;;;1.80;;
45520;SDS011;61151;50.928;4.534;2022-09-21T00:37:37;2.72;;;1.98;;
45520;SDS011;61151;50.928;4.534;2022-09-21T00:40:06;3.05;;;1.70;;
45520;SDS011;61151;50.928;4.534;2022-09-21T00:42:33;3.50;;;2.10;;
45520;SDS011;61151;50.928;4.534;2022-09-21T00:45:00;3.92;;;1.80;;
45520;SDS011;61151;50.928;4.534;2022-09-21T00:49:54;3.33;;;2.05;;
45520;SDS011;61151;50.928;4.534;2022-09-21T00:52:21;3.17;;;2.17;;
45520;SDS011;61151;50.928;4.534;2022-09-21T00:54:53;4.28;;;1.90;;
45520;SDS011;61151;50.928;4.534;2022-09-21T00:57:22;2.97;;;1.80;;
45520;SDS011;61151;50.928;4.534;2022-09-21T00:59:50;3.78;;;2.30;;
45520;SDS011;61151;50.928;4.534;2022-09-21T01:02:20;2.35;;;1.70;;
45520;SDS011;61151;50.928;4.534;2022-09-21T01:04:49;3.53;;;1.80;;
45520;SDS011;61151;50.928;4.534;2022-09-21T01:07:20;3.70;;;1.85;;
45520;SDS011;61151;50.928;4.534;2022-09-21T01:09:49;6.03;;;2.28;;
45520;SDS011;61151;50.928;4.534;2022-09-21T01:17:40;2.85;;;1.80;;
45520;SDS011;61151;50.928;4.534;2022-09-21T01:25:29;2.70;;;1.90;;
45520;SDS011;61151;50.928;4.534;2022-09-21T01:30:30;3.78;;;1.70;;
45520;SDS011;61151;50.928;4.534;2022-09-21T01:33:03;4.57;;;1.83;;
45520;SDS011;61151;50.928;4.534;2022-09-21T01:35:34;3.60;;;2.05;;
45520;SDS011;61151;50.928;4.534;2022-09-21T01:38:11;3.25;;;1.85;;
45520;SDS011;61151;50.928;4.534;2022-09-21T01:40:40;3.70;;;1.85;;
45520;SDS011;61151;50.928;4.534;2022-09-21T01:43:10;3.22;;;2.10;;
45520;SDS011;61151;50.928;4.534;2022-09-21T01:45:39;2.70;;;1.73;;
45520;SDS011;61151;50.928;4.534;2022-09-21T01:48:06;3.08;;;1.85;;
45520;SDS011;61151;50.928;4.534;2022-09-21T01:50:35;3.05;;;1.80;;
45520;SDS011;61151;50.928;4.534;2022-09-21T01:53:08;3.65;;;1.92;;
45520;SDS011;61151;50.928;4.534;2022-09-21T01:55:40;2.88;;;1.90;;
45520;SDS011;61151;50.928;4.534;2022-09-21T01:58:17;2.72;;;1.95;;
45520;SDS011;61151;50.928;4.534;2022-09-21T02:00:51;2.78;;;1.63;;
45520;SDS011;61151;50.928;4.534;2022-09-21T02:03:21;3.58;;;1.48;;
45520;SDS011;61151;50.928;4.534;2022-09-21T02:05:50;2.35;;;1.60;;
45520;SDS011;61151;50.928;4.534;2022-09-21T02:08:17;3.55;;;1.77;;
45520;SDS011;61151;50.928;4.534;2022-09-21T02:10:44;2.30;;;1.67;;
45520;SDS011;61151;50.928;4.534;2022-09-21T02:13:12;3.83;;;1.85;;
45520;SDS011;61151;50.928;4.534;2022-09-21T02:16:02;3.13;;;2.13;;
45520;SDS011;61151;50.928;4.534;2022-09-21T02:20:56;2.22;;;1.70;;
45520;SDS011;61151;50.928;4.534;2022-09-21T02:23:25;2.97;;;1.90;;
45520;SDS011;61151;50.928;4.534;2022-09-21T02:26:05;4.80;;;2.03;;
45520;SDS011;61151;50.928;4.534;2022-09-21T02:28:49;3.05;;;1.80;;
45520;SDS011;61151;50.928;4.534;2022-09-21T02:31:44;2.45;;;1.60;;
45520;SDS011;61151;50.928;4.534;2022-09-21T02:34:12;4.32;;;2.13;;
45520;SDS011;61151;50.928;4.534;2022-09-21T02:36:44;3.05;;;1.45;;
45520;SDS011;61151;50.928;4.534;2022-09-21T02:39:15;3.00;;;2.20;;
45520;SDS011;61151;50.928;4.534;2022-09-21T02:41:47;2.15;;;1.45;;
45520;SDS011;61151;50.928;4.534;2022-09-21T02:44:21;2.95;;;1.67;;
45520;SDS011;61151;50.928;4.534;2022-09-21T02:46:55;2.50;;;1.52;;
45520;SDS011;61151;50.928;4.534;2022-09-21T02:49:24;2.88;;;1.92;;
45520;SDS011;61151;50.928;4.534;2022-09-21T02:51:55;3.03;;;1.92;;
45520;SDS011;61151;50.928;4.534;2022-09-21T02:54:24;2.08;;;1.75;;
45520;SDS011;61151;50.928;4.534;2022-09-21T02:56:52;2.55;;;1.77;;
45520;SDS011;61151;50.928;4.534;2022-09-21T02:59:19;2.60;;;1.60;;
45520;SDS011;61151;50.928;4.534;2022-09-21T03:01:49;3.70;;;2.17;;
45520;SDS011;61151;50.928;4.534;2022-09-21T03:04:16;2.40;;;1.73;;
45520;SDS011;61151;50.928;4.534;2022-09-21T03:06:43;3.10;;;2.08;;
45520;SDS011;61151;50.928;4.534;2022-09-21T03:09:10;2.17;;;1.83;;
45520;SDS011;61151;50.928;4.534;2022-09-21T03:11:36;2.95;;;1.90;;
45520;SDS011;61151;50.928;4.534;2022-09-21T03:14:03;2.63;;;1.80;;
45520;SDS011;61151;50.928;4.534;2022-09-21T03:16:35;1.92;;;1.63;;
45520;SDS011;61151;50.928;4.534;2022-09-21T03:19:02;2.30;;;1.63;;
45520;SDS011;61151;50.928;4.534;2022-09-21T03:21:28;2.33;;;1.80;;
45520;SDS011;61151;50.928;4.534;2022-09-21T03:23:55;2.65;;;1.90;;
45520;SDS011;61151;50.928;4.534;2022-09-21T03:26:22;3.55;;;1.73;;
45520;SDS011;61151;50.928;4.534;2022-09-21T03:28:51;3.20;;;1.85;;
45520;SDS011;61151;50.928;4.534;2022-09-21T03:31:20;2.78;;;1.83;;
45520;SDS011;61151;50.928;4.534;2022-09-21T03:33:47;3.80;;;1.65;;
45520;SDS011;61151;50.928;4.534;2022-09-21T03:36:14;2.42;;;1.52;;
45520;SDS011;61151;50.928;4.534;2022-09-21T03:38:41;2.13;;;1.60;;
45520;SDS011;61151;50.928;4.534;2022-09-21T03:41:08;2.15;;;1.67;;
45520;SDS011;61151;50.928;4.534;2022-09-21T03:43:34;2.22;;;1.85;;
45520;SDS011;61151;50.928;4.534;2022-09-21T03:46:01;2.95;;;1.70;;
45520;SDS011;61151;50.928;4.534;2022-09-21T03:48:28;3.40;;;1.88;;
45520;SDS011;61151;50.928;4.534;2022-09-21T03:50:54;2.65;;;1.52;;
45520;SDS011;61151;50.928;4.534;2022-09-21T03:53:21;2.30;;;1.50;;
45520;SDS011;61151;50.928;4.534;2022-09-21T03:55:48;2.65;;;1.88;;
45520;SDS011;61151;50.928;4.534;2022-09-21T03:58:14;2.70;;;1.73;;
45520;SDS011;61151;50.928;4.534;2022-09-21T04:00:41;2.22;;;1.60;;
45520;SDS011;61151;50.928;4.534;2022-09-21T04:03:08;2.22;;;1.85;;
45520;SDS011;61151;50.928;4.534;2022-09-21T04:05:34;3.50;;;1.77;;
45520;SDS011;61151;50.928;4.534;2022-09-21T04:08:01;2.70;;;1.85;;
45520;SDS011;61151;50.928;4.534;2022-09-21T04:10:27;2.75;;;1.60;;
45520;SDS011;61151;50.928;4.534;2022-09-21T04:12:59;2.78;;;1.80;;
45520;SDS011;61151;50.928;4.534;2022-09-21T04:15:26;3.00;;;1.70;;
45520;SDS011;61151;50.928;4.534;2022-09-21T04:17:54;1.83;;;1.58;;
45520;SDS011;61151;50.928;4.534;2022-09-21T04:20:21;2.28;;;1.60;;
45520;SDS011;61151;50.928;4.534;2022-09-21T04:22:48;2.78;;;1.90;;
45520;SDS011;61151;50.928;4.534;2022-09-21T04:25:14;3.22;;;1.80;;
45520;SDS011;61151;50.928;4.534;2022-09-21T04:27:41;2.78;;;1.50;;
45520;SDS011;61151;50.928;4.534;2022-09-21T04:30:09;1.98;;;1.27;;
45520;SDS011;61151;50.928;4.534;2022-09-21T04:32:36;2.03;;;1.40;;
45520;SDS011;61151;50.928;4.534;2022-09-21T04:35:03;2.17;;;1.23;;
45520;SDS011;61151;50.928;4.534;2022-09-21T04:37:29;2.40;;;1.67;;
45520;SDS011;61151;50.928;4.534;2022-09-21T04:39:56;2.42;;;1.67;;
45520;SDS011;61151;50.928;4.534;2022-09-21T04:42:23;3.58;;;2.00;;
45520;SDS011;61151;50.928;4.534;2022-09-21T04:44:49;4.35;;;1.95;;
45520;SDS011;61151;50.928;4.534;2022-09-21T04:47:16;2.35;;;1.70;;
45520;SDS011;61151;50.928;4.534;2022-09-21T04:49:43;3.15;;;1.77;;
45520;SDS011;61151;50.928;4.534;2022-09-21T04:52:10;1.90;;;1.70;;
45520;SDS011;61151;50.928;4.534;2022-09-21T04:54:41;3.08;;;1.60;;
45520;SDS011;61151;50.928;4.534;2022-09-21T04:57:07;2.55;;;1.70;;
45520;SDS011;61151;50.928;4.534;2022-09-21T04:59:34;2.90;;;1.80;;
45520;SDS011;61151;50.928;4.534;2022-09-21T05:02:00;2.22;;;1.60;;
45520;SDS011;61151;50.928;4.534;2022-09-21T05:04:27;2.70;;;1.55;;
45520;SDS011;61151;50.928;4.534;2022-09-21T05:06:55;2.38;;;1.65;;
45520;SDS011;61151;50.928;4.534;2022-09-21T05:09:24;2.53;;;1.77;;
45520;SDS011;61151;50.928;4.534;2022-09-21T05:12:09;5.32;;;2.25;;
45520;SDS011;61151;50.928;4.534;2022-09-21T05:14:36;3.05;;;1.70;;
45520;SDS011;61151;50.928;4.534;2022-09-21T05:17:03;2.00;;;1.42;;
45520;SDS011;61151;50.928;4.534;2022-09-21T05:19:29;2.17;;;1.50;;
45520;SDS011;61151;50.928;4.534;2022-09-21T05:21:56;2.45;;;1.73;;
45520;SDS011;61151;50.928;4.534;2022-09-21T05:24:22;3.53;;;1.73;;
45520;SDS011;61151;50.928;4.534;2022-09-21T05:26:49;2.75;;;2.00;;
45520;SDS011;61151;50.928;4.534;2022-09-21T05:29:16;3.63;;;1.60;;
45520;SDS011;61151;50.928;4.534;2022-09-21T05:36:40;2.95;;;1.60;;
45520;SDS011;61151;50.928;4.534;2022-09-21T05:39:08;1.80;;;1.40;;
45520;SDS011;61151;50.928;4.534;2022-09-21T05:41:35;4.10;;;1.80;;
45520;SDS011;61151;50.928;4.534;2022-09-21T05:44:02;2.85;;;1.52;;
45520;SDS011;61151;50.928;4.534;2022-09-21T05:57:04;2.55;;;1.70;;
45520;SDS011;61151;50.928;4.534;2022-09-21T06:04:31;1.88;;;1.70;;
45520;SDS011;61151;50.928;4.534;2022-09-21T06:06:58;4.22;;;2.40;;
45520;SDS011;61151;50.928;4.534;2022-09-21T06:09:25;3.25;;;2.05;;
45520;SDS011;61151;50.928;4.534;2022-09-21T06:11:52;3.50;;;2.20;;
45520;SDS011;61151;50.928;4.534;2022-09-21T06:14:19;3.80;;;1.95;;
45520;SDS011;61151;50.928;4.534;2022-09-21T06:16:50;7.38;;;2.50;;
45520;SDS011;61151;50.928;4.534;2022-09-21T06:19:17;4.70;;;2.50;;
45520;SDS011;61151;50.928;4.534;2022-09-21T06:21:44;5.95;;;2.88;;
45520;SDS011;61151;50.928;4.534;2022-09-21T06:24:10;4.45;;;2.53;;
45520;SDS011;61151;50.928;4.534;2022-09-21T06:26:37;6.10;;;2.90;;
45520;SDS011;61151;50.928;4.534;2022-09-21T06:29:04;6.25;;;2.63;;
45520;SDS011;61151;50.928;4.534;2022-09-21T06:31:33;5.75;;;2.55;;
45520;SDS011;61151;50.928;4.534;2022-09-21T06:34:00;6.70;;;2.95;;
45520;SDS011;61151;50.928;4.534;2022-09-21T06:36:26;3.92;;;2.42;;
45520;SDS011;61151;50.928;4.534;2022-09-21T06:38:54;5.00;;;2.80;;
45520;SDS011;61151;50.928;4.534;2022-09-21T06:41:21;7.03;;;2.78;;
45520;SDS011;61151;50.928;4.534;2022-09-21T06:43:47;6.45;;;2.53;;
45520;SDS011;61151;50.928;4.534;2022-09-21T06:46:14;5.85;;;2.72;;
45520;SDS011;61151;50.928;4.534;2022-09-21T06:48:41;6.60;;;2.80;;
45520;SDS011;61151;50.928;4.534;2022-09-21T06:51:08;6.43;;;2.53;;
45520;SDS011;61151;50.928;4.534;2022-09-21T06:53:35;10.80;;;3.25;;
45520;SDS011;61151;50.928;4.534;2022-09-21T06:56:05;23.83;;;4.97;;
45520;SDS011;61151;50.928;4.534;2022-09-21T06:58:33;25.75;;;7.28;;
45520;SDS011;61151;50.928;4.534;2022-09-21T07:01:06;23.23;;;6.63;;
45520;SDS011;61151;50.928;4.534;2022-09-21T07:03:33;25.00;;;6.72;;
45520;SDS011;61151;50.928;4.534;2022-09-21T07:06:00;31.33;;;7.57;;
45520;SDS011;61151;50.928;4.534;2022-09-21T07:08:27;34.40;;;7.68;;
45520;SDS011;61151;50.928;4.534;2022-09-21T07:11:13;29.17;;;7.80;;
45520;SDS011;61151;50.928;4.534;2022-09-21T07:13:40;37.75;;;8.55;;
45520;SDS011;61151;50.928;4.534;2022-09-21T07:16:08;34.70;;;8.20;;
45520;SDS011;61151;50.928;4.534;2022-09-21T07:18:35;39.90;;;8.90;;
45520;SDS011;61151;50.928;4.534;2022-09-21T07:21:09;26.02;;;7.78;;
45520;SDS011;61151;50.928;4.534;2022-09-21T07:23:36;28.13;;;8.77;;
45520;SDS011;61151;50.928;4.534;2022-09-21T07:26:10;27.05;;;6.40;;
45520;SDS011;61151;50.928;4.534;2022-09-21T07:28:37;35.25;;;7.78;;
45520;SDS011;61151;50.928;4.534;2022-09-21T07:31:05;28.60;;;6.72;;
45520;SDS011;61151;50.928;4.534;2022-09-21T07:33:31;27.92;;;6.43;;
45520;SDS011;61151;50.928;4.534;2022-09-21T07:36:01;23.33;;;6.03;;
45520;SDS011;61151;50.928;4.534;2022-09-21T07:38:38;22.42;;;6.47;;
45520;SDS011;61151;50.928;4.534;2022-09-21T07:41:05;22.60;;;6.50;;
45520;SDS011;61151;50.928;4.534;2022-09-21T07:43:32;18.45;;;5.55;;
45520;SDS011;61151;50.928;4.534;2022-09-21T07:45:59;21.17;;;5.25;;
45520;SDS011;61151;50.928;4.534;2022-09-21T07:48:27;15.77;;;6.22;;
45520;SDS011;61151;50.928;4.534;2022-09-21T07:50:58;14.93;;;5.50;;
45520;SDS011;61151;50.928;4.534;2022-09-21T07:53:25;16.83;;;5.53;;
45520;SDS011;61151;50.928;4.534;2022-09-21T07:55:51;10.18;;;4.03;;
45520;SDS011;61151;50.928;4.534;2022-09-21T07:58:19;17.33;;;5.00;;
45520;SDS011;61151;50.928;4.534;2022-09-21T08:01:04;14.43;;;4.78;;
45520;SDS011;61151;50.928;4.534;2022-09-21T08:03:32;12.10;;;4.50;;
45520;SDS011;61151;50.928;4.534;2022-09-21T08:05:58;18.15;;;4.90;;
45520;SDS011;61151;50.928;4.534;2022-09-21T08:08:25;12.38;;;4.85;;
45520;SDS011;61151;50.928;4.534;2022-09-21T08:10:52;17.73;;;4.95;;
45520;SDS011;61151;50.928;4.534;2022-09-21T08:13:19;17.92;;;5.05;;
45520;SDS011;61151;50.928;4.534;2022-09-21T08:15:46;14.63;;;4.82;;
45520;SDS011;61151;50.928;4.534;2022-09-21T08:18:15;14.70;;;4.22;;
45520;SDS011;61151;50.928;4.534;2022-09-21T08:20:42;9.57;;;4.05;;
45520;SDS011;61151;50.928;4.534;2022-09-21T08:23:09;10.23;;;4.60;;
45520;SDS011;61151;50.928;4.534;2022-09-21T08:25:37;13.82;;;4.68;;
45520;SDS011;61151;50.928;4.534;2022-09-21T08:28:03;14.85;;;4.90;;
45520;SDS011;61151;50.928;4.534;2022-09-21T08:30:35;12.63;;;4.85;;
45520;SDS011;61151;50.928;4.534;2022-09-21T08:33:01;14.57;;;5.88;;
45520;SDS011;61151;50.928;4.534;2022-09-21T08:35:29;17.77;;;4.40;;
45520;SDS011;61151;50.928;4.534;2022-09-21T08:37:55;16.10;;;5.43;;
45520;SDS011;61151;50.928;4.534;2022-09-21T08:40:22;12.18;;;4.72;;
45520;SDS011;61151;50.928;4.534;2022-09-21T08:45:22;17.60;;;4.32;;
45520;SDS011;61151;50.928;4.534;2022-09-21T08:47:51;14.20;;;4.75;;
45520;SDS011;61151;50.928;4.534;2022-09-21T08:55:53;11.68;;;4.13;;
45520;SDS011;61151;50.928;4.534;2022-09-21T08:58:24;12.95;;;4.95;;
45520;SDS011;61151;50.928;4.534;2022-09-21T09:01:06;9.43;;;4.28;;
45520;SDS011;61151;50.928;4.534;2022-09-21T09:06:13;11.43;;;4.50;;
45520;SDS011;61151;50.928;4.534;2022-09-21T09:16:35;12.60;;;4.30;;
45520;SDS011;61151;50.928;4.534;2022-09-21T09:21:49;7.07;;;3.55;;
45520;SDS011;61151;50.928;4.534;2022-09-21T09:24:18;7.15;;;3.55;;
45520;SDS011;61151;50.928;4.534;2022-09-21T09:26:49;9.23;;;4.50;;
45520;SDS011;61151;50.928;4.534;2022-09-21T09:31:43;10.40;;;3.13;;
45520;SDS011;61151;50.928;4.534;2022-09-21T09:34:14;11.20;;;4.30;;
45520;SDS011;61151;50.928;4.534;2022-09-21T09:36:45;7.65;;;3.83;;
45520;SDS011;61151;50.928;4.534;2022-09-21T09:39:24;10.23;;;3.63;;
45520;SDS011;61151;50.928;4.534;2022-09-21T09:52:12;5.45;;;3.03;;
45520;SDS011;61151;50.928;4.534;2022-09-21T09:54:40;8.48;;;3.17;;
45520;SDS011;61151;50.928;4.534;2022-09-21T09:57:07;7.35;;;3.45;;
45520;SDS011;61151;50.928;4.534;2022-09-21T09:59:44;10.00;;;3.75;;
45520;SDS011;61151;50.928;4.534;2022-09-21T10:02:20;7.75;;;3.08;;
45520;SDS011;61151;50.928;4.534;2022-09-21T10:05:00;11.70;;;3.67;;
45520;SDS011;61151;50.928;4.534;2022-09-21T10:07:37;5.28;;;2.67;;
45520;SDS011;61151;50.928;4.534;2022-09-21T10:12:50;10.18;;;2.67;;
45520;SDS011;61151;50.928;4.534;2022-09-21T10:15:18;9.25;;;2.97;;
45520;SDS011;61151;50.928;4.534;2022-09-21T10:17:45;8.73;;;3.35;;
45520;SDS011;61151;50.928;4.534;2022-09-21T10:20:14;6.22;;;2.88;;
45520;SDS011;61151;50.928;4.534;2022-09-21T10:22:42;7.18;;;3.22;;
45520;SDS011;61151;50.928;4.534;2022-09-21T10:25:15;6.00;;;2.90;;
45520;SDS011;61151;50.928;4.534;2022-09-21T10:27:43;7.28;;;2.67;;
45520;SDS011;61151;50.928;4.534;2022-09-21T10:30:30;7.13;;;2.70;;
45520;SDS011;61151;50.928;4.534;2022-09-21T10:32:57;9.95;;;2.63;;
45520;SDS011;61151;50.928;4.534;2022-09-21T10:35:24;7.35;;;3.10;;
45520;SDS011;61151;50.928;4.534;2022-09-21T10:38:08;6.65;;;2.72;;
45520;SDS011;61151;50.928;4.534;2022-09-21T10:40:36;9.55;;;2.90;;
45520;SDS011;61151;50.928;4.534;2022-09-21T10:43:03;9.35;;;2.70;;
45520;SDS011;61151;50.928;4.534;2022-09-21T10:45:30;4.93;;;2.72;;
45520;SDS011;61151;50.928;4.534;2022-09-21T10:48:13;9.25;;;2.60;;
45520;SDS011;61151;50.928;4.534;2022-09-21T10:50:42;10.98;;;2.67;;
45520;SDS011;61151;50.928;4.534;2022-09-21T10:55:48;8.68;;;2.58;;
45520;SDS011;61151;50.928;4.534;2022-09-21T10:58:37;5.43;;;2.72;;
45520;SDS011;61151;50.928;4.534;2022-09-21T11:01:20;3.47;;;2.40;;
45520;SDS011;61151;50.928;4.534;2022-09-21T11:06:21;8.40;;;3.00;;
45520;SDS011;61151;50.928;4.534;2022-09-21T11:11:22;6.75;;;2.83;;
45520;SDS011;61151;50.928;4.534;2022-09-21T11:14:10;6.15;;;2.70;;
45520;SDS011;61151;50.928;4.534;2022-09-21T11:16:40;5.60;;;2.38;;
45520;SDS011;61151;50.928;4.534;2022-09-21T11:19:13;6.65;;;2.60;;
45520;SDS011;61151;50.928;4.534;2022-09-21T11:21:44;6.10;;;2.55;;
45520;SDS011;61151;50.928;4.534;2022-09-21T11:26:40;6.25;;;2.58;;
45520;SDS011;61151;50.928;4.534;2022-09-21T11:29:14;5.40;;;2.30;;
45520;SDS011;61151;50.928;4.534;2022-09-21T11:32:27;4.30;;;2.72;;
45520;SDS011;61151;50.928;4.534;2022-09-21T11:37:36;6.13;;;2.63;;
45520;SDS011;61151;50.928;4.534;2022-09-21T11:43:39;4.68;;;2.22;;
45520;SDS011;61151;50.928;4.534;2022-09-21T11:51:16;4.85;;;2.83;;
45520;SDS011;61151;50.928;4.534;2022-09-21T11:56:31;5.18;;;2.22;;
45520;SDS011;61151;50.928;4.534;2022-09-21T11:59:10;4.63;;;2.33;;
45520;SDS011;61151;50.928;4.534;2022-09-21T12:04:54;4.57;;;2.10;;
45520;SDS011;61151;50.928;4.534;2022-09-21T12:10:07;5.85;;;2.75;;
45520;SDS011;61151;50.928;4.534;2022-09-21T12:15:08;4.72;;;2.20;;
45520;SDS011;61151;50.928;4.534;2022-09-21T12:17:40;3.92;;;2.10;;
45520;SDS011;61151;50.928;4.534;2022-09-21T12:20:18;4.10;;;2.03;;
45520;SDS011;61151;50.928;4.534;2022-09-21T12:22:46;5.22;;;2.10;;
45520;SDS011;61151;50.928;4.534;2022-09-21T12:25:18;5.13;;;2.55;;
45520;SDS011;61151;50.928;4.534;2022-09-21T12:27:49;3.47;;;2.10;;
45520;SDS011;61151;50.928;4.534;2022-09-21T12:30:21;5.30;;;2.15;;
45520;SDS011;61151;50.928;4.534;2022-09-21T12:35:18;5.82;;;2.30;;
45520;SDS011;61151;50.928;4.534;2022-09-21T12:37:51;4.25;;;1.88;;
45520;SDS011;61151;50.928;4.534;2022-09-21T12:40:40;4.72;;;2.22;;
45520;SDS011;61151;50.928;4.534;2022-09-21T12:45:50;3.72;;;2.10;;
45520;SDS011;61151;50.928;4.534;2022-09-21T12:48:33;2.40;;;1.60;;
45520;SDS011;61151;50.928;4.534;2022-09-21T12:53:32;4.13;;;2.28;;
45520;SDS011;61151;50.928;4.534;2022-09-21T12:56:36;5.32;;;2.63;;
45520;SDS011;61151;50.928;4.534;2022-09-21T13:06:28;3.15;;;1.65;;
45520;SDS011;61151;50.928;4.534;2022-09-21T13:08:59;2.65;;;1.60;;
45520;SDS011;61151;50.928;4.534;2022-09-21T13:11:30;3.83;;;1.52;;
45520;SDS011;61151;50.928;4.534;2022-09-21T13:13:59;3.22;;;1.70;;
45520;SDS011;61151;50.928;4.534;2022-09-21T13:16:31;4.93;;;2.25;;
45520;SDS011;61151;50.928;4.534;2022-09-21T13:19:19;2.55;;;1.30;;
45520;SDS011;61151;50.928;4.534;2022-09-21T13:21:51;3.47;;;1.60;;
45520;SDS011;61151;50.928;4.534;2022-09-21T13:24:39;2.42;;;1.48;;
45520;SDS011;61151;50.928;4.534;2022-09-21T13:27:07;2.58;;;1.30;;
45520;SDS011;61151;50.928;4.534;2022-09-21T13:29:35;2.88;;;1.55;;
45520;SDS011;61151;50.928;4.534;2022-09-21T13:34:34;3.72;;;1.40;;
45520;SDS011;61151;50.928;4.534;2022-09-21T13:44:56;4.22;;;1.30;;
45520;SDS011;61151;50.928;4.534;2022-09-21T13:47:33;2.83;;;1.30;;
45520;SDS011;61151;50.928;4.534;2022-09-21T13:50:11;4.43;;;1.80;;
45520;SDS011;61151;50.928;4.534;2022-09-21T13:52:44;4.35;;;1.95;;
45520;SDS011;61151;50.928;4.534;2022-09-21T13:55:26;2.67;;;1.50;;
45520;SDS011;61151;50.928;4.534;2022-09-21T13:57:54;2.80;;;1.20;;
45520;SDS011;61151;50.928;4.534;2022-09-21T14:05:33;3.85;;;1.63;;
45520;SDS011;61151;50.928;4.534;2022-09-21T14:10:55;2.75;;;1.40;;
45520;SDS011;61151;50.928;4.534;2022-09-21T14:13:39;4.35;;;1.48;;
45520;SDS011;61151;50.928;4.534;2022-09-21T14:16:48;5.72;;;1.50;;
45520;SDS011;61151;50.928;4.534;2022-09-21T14:29:55;3.30;;;1.40;;
45520;SDS011;61151;50.928;4.534;2022-09-21T14:32:33;3.05;;;1.60;;
45520;SDS011;61151;50.928;4.534;2022-09-21T14:35:05;2.75;;;1.48;;
45520;SDS011;61151;50.928;4.534;2022-09-21T14:37:39;2.00;;;1.10;;
45520;SDS011;61151;50.928;4.534;2022-09-21T14:40:16;1.92;;;1.17;;
45520;SDS011;61151;50.928;4.534;2022-09-21T14:42:45;4.93;;;1.67;;
45520;SDS011;61151;50.928;4.534;2022-09-21T14:45:13;3.45;;;1.40;;
45520;SDS011;61151;50.928;4.534;2022-09-21T14:47:46;2.55;;;1.30;;
45520;SDS011;61151;50.928;4.534;2022-09-21T14:50:24;2.60;;;1.15;;
45520;SDS011;61151;50.928;4.534;2022-09-21T14:58:24;4.05;;;1.20;;
45520;SDS011;61151;50.928;4.534;2022-09-21T15:00:55;2.25;;;1.20;;
45520;SDS011;61151;50.928;4.534;2022-09-21T15:03:43;3.20;;;1.50;;
45520;SDS011;61151;50.928;4.534;2022-09-21T15:12:02;3.30;;;1.33;;
45520;SDS011;61151;50.928;4.534;2022-09-21T15:14:39;2.55;;;1.13;;
45520;SDS011;61151;50.928;4.534;2022-09-21T15:19:38;2.33;;;1.33;;
45520;SDS011;61151;50.928;4.534;2022-09-21T15:24:46;2.50;;;1.27;;
45520;SDS011;61151;50.928;4.534;2022-09-21T15:27:13;2.58;;;1.20;;
45520;SDS011;61151;50.928;4.534;2022-09-21T15:29:42;2.53;;;1.48;;
45520;SDS011;61151;50.928;4.534;2022-09-21T15:32:15;2.13;;;1.33;;
45520;SDS011;61151;50.928;4.534;2022-09-21T15:35:03;1.33;;;0.95;;
45520;SDS011;61151;50.928;4.534;2022-09-21T15:37:33;2.70;;;1.30;;
45520;SDS011;61151;50.928;4.534;2022-09-21T15:40:01;3.08;;;1.30;;
45520;SDS011;61151;50.928;4.534;2022-09-21T15:42:31;3.40;;;1.70;;
45520;SDS011;61151;50.928;4.534;2022-09-21T15:45:19;1.63;;;1.03;;
45520;SDS011;61151;50.928;4.534;2022-09-21T15:47:46;2.17;;;1.10;;
45520;SDS011;61151;50.928;4.534;2022-09-21T15:50:13;1.77;;;1.20;;
45520;SDS011;61151;50.928;4.534;2022-09-21T15:52:50;2.53;;;1.52;;
45520;SDS011;61151;50.928;4.534;2022-09-21T15:55:18;2.53;;;1.20;;
45520;SDS011;61151;50.928;4.534;2022-09-21T15:57:50;2.28;;;1.20;;
45520;SDS011;61151;50.928;4.534;2022-09-21T16:00:19;3.17;;;1.40;;
45520;SDS011;61151;50.928;4.534;2022-09-21T16:02:53;2.20;;;1.27;;
45520;SDS011;61151;50.928;4.534;2022-09-21T16:05:21;3.25;;;1.05;;
45520;SDS011;61151;50.928;4.534;2022-09-21T16:07:49;3.50;;;1.60;;
45520;SDS011;61151;50.928;4.534;2022-09-21T16:13:02;2.28;;;0.80;;
45520;SDS011;61151;50.928;4.534;2022-09-21T16:15:59;2.92;;;1.40;;
45520;SDS011;61151;50.928;4.534;2022-09-21T16:18:30;2.38;;;1.13;;
45520;SDS011;61151;50.928;4.534;2022-09-21T16:21:06;2.45;;;1.17;;
45520;SDS011;61151;50.928;4.534;2022-09-21T16:23:33;2.30;;;1.15;;
45520;SDS011;61151;50.928;4.534;2022-09-21T16:26:01;3.22;;;1.40;;
45520;SDS011;61151;50.928;4.534;2022-09-21T16:28:29;2.58;;;1.30;;
45520;SDS011;61151;50.928;4.534;2022-09-21T16:30:59;3.35;;;1.40;;
45520;SDS011;61151;50.928;4.534;2022-09-21T16:39:00;1.98;;;1.30;;
45520;SDS011;61151;50.928;4.534;2022-09-21T16:41:34;5.47;;;1.38;;
45520;SDS011;61151;50.928;4.534;2022-09-21T16:44:01;4.53;;;1.70;;
45520;SDS011;61151;50.928;4.534;2022-09-21T16:46:28;7.10;;;1.42;;
45520;SDS011;61151;50.928;4.534;2022-09-21T16:48:57;4.20;;;1.50;;
45520;SDS011;61151;50.928;4.534;2022-09-21T16:51:26;4.70;;;1.45;;
45520;SDS011;61151;50.928;4.534;2022-09-21T16:53:53;3.90;;;1.27;;
45520;SDS011;61151;50.928;4.534;2022-09-21T16:56:21;2.60;;;1.40;;
45520;SDS011;61151;50.928;4.534;2022-09-21T16:58:47;5.85;;;1.25;;
45520;SDS011;61151;50.928;4.534;2022-09-21T17:01:15;6.68;;;1.80;;
45520;SDS011;61151;50.928;4.534;2022-09-21T17:03:44;2.70;;;1.30;;
45520;SDS011;61151;50.928;4.534;2022-09-21T17:06:16;3.03;;;1.50;;
45520;SDS011;61151;50.928;4.534;2022-09-21T17:08:43;4.22;;;1.70;;
45520;SDS011;61151;50.928;4.534;2022-09-21T17:11:10;3.90;;;1.48;;
45520;SDS011;61151;50.928;4.534;2022-09-21T17:13:36;3.90;;;1.40;;
45520;SDS011;61151;50.928;4.534;2022-09-21T17:16:03;4.53;;;1.58;;
45520;SDS011;61151;50.928;4.534;2022-09-21T17:18:30;3.67;;;1.35;;
45520;SDS011;61151;50.928;4.534;2022-09-21T17:20:56;2.38;;;1.20;;
45520;SDS011;61151;50.928;4.534;2022-09-21T17:23:23;4.10;;;1.10;;
45520;SDS011;61151;50.928;4.534;2022-09-21T17:25:54;2.38;;;1.67;;
45520;SDS011;61151;50.928;4.534;2022-09-21T17:28:24;4.00;;;1.30;;
45520;SDS011;61151;50.928;4.534;2022-09-21T17:30:52;5.35;;;1.33;;
45520;SDS011;61151;50.928;4.534;2022-09-21T17:33:19;2.20;;;1.58;;
45520;SDS011;61151;50.928;4.534;2022-09-21T17:35:47;2.75;;;1.30;;
45520;SDS011;61151;50.928;4.534;2022-09-21T17:38:16;4.82;;;1.58;;
45520;SDS011;61151;50.928;4.534;2022-09-21T17:40:43;3.03;;;1.25;;
45520;SDS011;61151;50.928;4.534;2022-09-21T17:43:30;3.67;;;1.52;;
45520;SDS011;61151;50.928;4.534;2022-09-21T17:48:26;3.15;;;1.40;;
45520;SDS011;61151;50.928;4.534;2022-09-21T17:50:59;3.13;;;1.40;;
45520;SDS011;61151;50.928;4.534;2022-09-21T17:53:25;3.80;;;1.45;;
45520;SDS011;61151;50.928;4.534;2022-09-21T18:03:54;4.07;;;1.30;;
45520;SDS011;61151;50.928;4.534;2022-09-21T18:06:22;4.32;;;2.13;;
45520;SDS011;61151;50.928;4.534;2022-09-21T18:08:49;4.65;;;1.10;;
45520;SDS011;61151;50.928;4.534;2022-09-21T18:16:21;4.82;;;1.55;;